createdAt,value
2022-12-15T00:00:04.906Z,16.92
2022-12-15T00:02:25.547Z,16.88
2022-12-15T00:04:45.893Z,17.65
2022-12-15T00:07:06.386Z,18.88
2022-12-15T00:09:30.798Z,19.33
2022-12-15T00:11:51.474Z,17.50
2022-12-15T00:14:12.260Z,18.30
2022-12-15T00:16:32.957Z,17.55
2022-12-15T00:18:53.389Z,18.73
2022-12-15T00:21:17.528Z,20.27
2022-12-15T00:23:37.965Z,21.23
2022-12-15T00:25:58.363Z,24.00
2022-12-15T00:28:18.845Z,23.25
2022-12-15T00:30:39.453Z,23.58
2022-12-15T00:33:00.007Z,23.33
2022-12-15T00:35:20.487Z,24.13
2022-12-15T00:37:41.129Z,24.08
2022-12-15T00:39:42.956Z,25.30
2022-12-15T00:41:44.699Z,26.23
2022-12-15T00:43:46.810Z,25.83
2022-12-15T00:46:06.925Z,26.85
2022-12-15T00:48:08.657Z,27.35
2022-12-15T00:50:29.171Z,26.30
2022-12-15T00:52:49.689Z,27.20
2022-12-15T00:55:10.145Z,26.55
2022-12-15T00:57:30.744Z,27.08
2022-12-15T00:59:51.327Z,26.67
2022-12-15T01:02:11.730Z,26.85
2022-12-15T01:04:32.055Z,27.20
2022-12-15T01:06:52.656Z,26.85
2022-12-15T01:09:13.389Z,27.05
2022-12-15T01:11:33.526Z,27.00
2022-12-15T01:13:54.203Z,26.92
2022-12-15T01:16:14.772Z,27.65
2022-12-15T01:18:35.721Z,26.38
2022-12-15T01:20:37.613Z,26.55
2022-12-15T01:22:40.580Z,26.85
2022-12-15T01:24:42.495Z,26.50
2022-12-15T01:26:44.173Z,26.13
2022-12-15T01:28:45.930Z,28.48
2022-12-15T01:30:48.166Z,27.13
2022-12-15T01:32:50.363Z,29.23
2022-12-15T01:34:52.136Z,27.23
2022-12-15T01:36:53.999Z,27.73
2022-12-15T01:38:55.752Z,27.58
2022-12-15T01:41:07.865Z,27.08
2022-12-15T01:43:32.392Z,27.70
2022-12-15T01:45:46.859Z,26.85
2022-12-15T01:47:48.679Z,27.70
2022-12-15T01:49:51.514Z,27.08
2022-12-15T01:51:58.435Z,28.23
2022-12-15T01:54:15.751Z,27.02
2022-12-15T01:56:19.705Z,26.70
2022-12-15T01:58:22.752Z,26.85
2022-12-15T02:00:24.528Z,27.55
2022-12-15T02:02:32.357Z,26.50
2022-12-15T02:04:37.929Z,27.08
2022-12-15T02:06:39.828Z,26.42
2022-12-15T02:08:45.022Z,27.48
2022-12-15T02:11:05.141Z,27.45
2022-12-15T02:13:32.164Z,27.73
2022-12-15T02:15:41.856Z,26.17
2022-12-15T02:18:10.878Z,25.90
2022-12-15T02:20:37.828Z,28.73
2022-12-15T02:23:16.684Z,27.95
2022-12-15T02:25:50.798Z,26.35
2022-12-15T02:28:16.222Z,26.27
2022-12-15T02:30:26.538Z,25.75
2022-12-15T02:32:37.170Z,26.35
2022-12-15T02:34:41.976Z,27.23
2022-12-15T02:36:48.607Z,27.27
2022-12-15T02:38:50.555Z,27.77
2022-12-15T02:40:58.651Z,26.55
2022-12-15T02:43:04.173Z,25.80
2022-12-15T02:45:12.849Z,26.75
2022-12-15T02:47:33.263Z,27.73
2022-12-15T02:49:56.969Z,26.25
2022-12-15T02:52:07.592Z,26.45
2022-12-15T02:54:21.886Z,26.65
2022-12-15T02:57:11.475Z,26.02
2022-12-15T02:59:34.007Z,25.50
2022-12-15T03:02:03.804Z,24.98
2022-12-15T03:04:08.154Z,25.42
2022-12-15T03:06:10.114Z,26.05
2022-12-15T03:08:11.849Z,26.92
2022-12-15T03:10:15.215Z,24.33
2022-12-15T03:12:16.972Z,27.23
2022-12-15T03:14:18.770Z,24.42
2022-12-15T03:16:20.916Z,25.25
2022-12-15T03:18:22.737Z,24.08
2022-12-15T03:20:24.483Z,23.55
2022-12-15T03:22:26.336Z,23.65
2022-12-15T03:24:28.028Z,23.20
2022-12-15T03:26:29.762Z,23.90
2022-12-15T03:28:31.487Z,23.42
2022-12-15T03:30:33.295Z,23.13
2022-12-15T03:32:35.019Z,24.58
2022-12-15T03:34:36.773Z,22.95
2022-12-15T03:36:38.626Z,22.40
2022-12-15T03:38:40.401Z,25.20
2022-12-15T03:40:42.380Z,24.30
2022-12-15T03:42:48.464Z,23.17
2022-12-15T03:44:50.179Z,23.17
2022-12-15T03:46:51.985Z,24.15
2022-12-15T03:48:54.391Z,22.75
2022-12-15T03:50:56.156Z,23.67
2022-12-15T03:53:00.384Z,23.95
2022-12-15T03:55:03.483Z,24.23
2022-12-15T03:57:05.194Z,24.45
2022-12-15T03:59:06.984Z,25.95
2022-12-15T04:01:13.990Z,23.80
2022-12-15T04:03:16.152Z,25.25
2022-12-15T04:05:26.213Z,26.00
2022-12-15T04:07:27.977Z,25.17
2022-12-15T04:09:29.781Z,25.25
2022-12-15T04:11:31.526Z,24.08
2022-12-15T04:13:33.580Z,24.95
2022-12-15T04:15:38.033Z,26.75
2022-12-15T04:17:40.253Z,26.30
2022-12-15T04:20:00.693Z,25.70
2022-12-15T04:22:03.633Z,25.77
2022-12-15T04:24:24.433Z,26.52
2022-12-15T04:26:44.966Z,26.38
2022-12-15T04:29:05.145Z,25.30
2022-12-15T04:31:29.753Z,26.08
2022-12-15T04:33:51.112Z,26.00
2022-12-15T04:36:11.509Z,25.48
2022-12-15T04:38:31.859Z,26.05
2022-12-15T04:40:52.073Z,26.85
2022-12-15T04:43:12.664Z,26.08
2022-12-15T04:45:35.371Z,26.08
2022-12-15T04:47:55.618Z,26.73
2022-12-15T04:50:16.032Z,25.98
2022-12-15T04:52:36.407Z,26.05
2022-12-15T04:54:56.383Z,25.60
2022-12-15T04:57:16.733Z,27.70
2022-12-15T04:59:37.595Z,25.10
2022-12-15T05:01:57.941Z,27.52
2022-12-15T05:04:18.516Z,25.55
2022-12-15T05:06:38.929Z,27.23
2022-12-15T05:08:59.175Z,26.08
2022-12-15T05:11:19.713Z,27.42
2022-12-15T05:13:40.422Z,27.60
2022-12-15T05:16:01.024Z,27.23
2022-12-15T05:18:21.652Z,26.98
2022-12-15T05:20:42.299Z,28.67
2022-12-15T05:23:02.699Z,27.33
2022-12-15T05:25:23.494Z,28.02
2022-12-15T05:27:43.596Z,28.85
2022-12-15T05:30:04.138Z,28.52
2022-12-15T05:32:06.667Z,28.88
2022-12-15T05:36:10.059Z,27.63
2022-12-15T05:38:11.867Z,28.92
2022-12-15T05:40:13.705Z,29.88
2022-12-15T05:42:15.491Z,28.50
2022-12-15T05:44:17.476Z,28.50
2022-12-15T05:46:19.743Z,30.20
2022-12-15T05:48:21.598Z,29.30
2022-12-15T05:50:23.574Z,29.00
2022-12-15T05:52:25.372Z,31.65
2022-12-15T05:54:27.255Z,30.25
2022-12-15T05:56:29.582Z,30.02
2022-12-15T05:58:31.614Z,29.65
2022-12-15T06:00:33.938Z,29.50
2022-12-15T06:02:35.681Z,30.17
2022-12-15T06:04:37.541Z,29.45
2022-12-15T06:06:40.088Z,29.85
2022-12-15T06:10:43.971Z,28.30
2022-12-15T06:12:45.777Z,29.00
2022-12-15T06:14:47.506Z,29.42
2022-12-15T06:16:51.928Z,29.48
2022-12-15T06:18:56.268Z,28.92
2022-12-15T06:21:00.640Z,28.40
2022-12-15T06:23:02.375Z,28.90
2022-12-15T06:25:04.438Z,29.27
2022-12-15T06:27:06.157Z,28.80
2022-12-15T06:29:10.648Z,28.60
2022-12-15T06:31:13.555Z,29.35
2022-12-15T06:33:15.416Z,29.90
2022-12-15T06:35:17.131Z,29.45
2022-12-15T06:37:18.896Z,21.42
2022-12-15T06:39:20.700Z,29.02
2022-12-15T06:41:22.933Z,28.60
2022-12-15T06:43:25.242Z,27.85
2022-12-15T06:45:27.037Z,29.63
2022-12-15T06:47:28.769Z,28.55
2022-12-15T06:49:30.518Z,28.42
2022-12-15T06:51:32.778Z,30.02
2022-12-15T06:53:38.066Z,31.20
2022-12-15T06:55:40.298Z,31.98
2022-12-15T06:57:42.115Z,29.92
2022-12-15T06:59:43.995Z,30.83
2022-12-15T07:01:46.192Z,29.75
2022-12-15T07:03:48.540Z,31.55
2022-12-15T07:06:04.866Z,30.95
2022-12-15T07:08:06.915Z,31.20
2022-12-15T07:10:09.231Z,31.88
2022-12-15T07:12:12.710Z,31.55
2022-12-15T07:14:14.489Z,30.83
2022-12-15T07:16:16.556Z,30.98
2022-12-15T07:18:18.684Z,30.92
2022-12-15T07:20:25.531Z,32.33
2022-12-15T07:22:30.448Z,30.05
2022-12-15T07:24:32.178Z,30.20
2022-12-15T07:26:34.304Z,30.50
2022-12-15T07:28:38.803Z,30.70
2022-12-15T07:30:40.557Z,30.58
2022-12-15T07:32:44.202Z,28.38
2022-12-15T07:34:52.019Z,29.23
2022-12-15T07:36:53.736Z,32.47
2022-12-15T07:39:02.865Z,30.17
2022-12-15T07:41:06.804Z,30.83
2022-12-15T07:43:08.603Z,30.52
2022-12-15T07:45:11.167Z,30.23
2022-12-15T07:49:15.141Z,29.65
2022-12-15T07:51:19.842Z,30.73
2022-12-15T07:53:21.941Z,30.90
2022-12-15T07:55:43.348Z,29.58
2022-12-15T07:57:47.690Z,29.83
2022-12-15T07:59:50.573Z,30.77
2022-12-15T08:01:53.700Z,29.65
2022-12-15T08:03:55.619Z,30.10
2022-12-15T08:06:03.624Z,30.85
2022-12-15T08:08:08.513Z,30.60
2022-12-15T08:10:13.978Z,31.50
2022-12-15T08:12:17.303Z,31.23
2022-12-15T08:14:19.597Z,30.95
2022-12-15T08:16:21.893Z,31.02
2022-12-15T08:18:23.674Z,29.75
2022-12-15T08:20:25.778Z,30.25
2022-12-15T08:22:27.550Z,31.25
2022-12-15T08:24:29.273Z,30.80
2022-12-15T08:26:31.710Z,30.40
2022-12-15T08:30:38.890Z,30.52
2022-12-15T08:32:40.647Z,30.02
2022-12-15T08:34:42.730Z,31.02
2022-12-15T08:36:44.515Z,30.90
2022-12-15T08:38:47.458Z,31.33
2022-12-15T08:40:49.213Z,30.75
2022-12-15T08:42:51.034Z,31.67
2022-12-15T08:44:52.748Z,30.80
2022-12-15T08:46:54.554Z,32.33
2022-12-15T08:48:56.698Z,31.08
2022-12-15T08:50:59.893Z,32.03
2022-12-15T08:53:29.702Z,33.13
2022-12-15T08:55:25.376Z,31.90
2022-12-15T08:57:27.405Z,32.75
2022-12-15T08:59:29.166Z,32.53
2022-12-15T09:01:32.686Z,32.90
2022-12-15T09:03:35.707Z,33.28
2022-12-15T09:05:39.090Z,31.77
2022-12-15T09:07:40.827Z,32.53
2022-12-15T09:09:43.146Z,32.65
2022-12-15T09:11:45.009Z,34.42
2022-12-15T09:13:46.811Z,32.92
2022-12-15T09:16:14.917Z,32.75
2022-12-15T09:18:16.654Z,32.03
2022-12-15T09:20:18.488Z,32.83
2022-12-15T09:22:20.298Z,34.60
2022-12-15T09:24:32.282Z,33.55
2022-12-15T09:26:36.296Z,32.45
2022-12-15T09:28:38.964Z,31.63
2022-12-15T09:30:40.810Z,34.08
2022-12-15T09:32:42.632Z,33.80
2022-12-15T09:34:44.351Z,32.78
2022-12-15T09:36:46.057Z,31.35
2022-12-15T09:38:48.396Z,31.88
2022-12-15T09:40:50.226Z,32.67
2022-12-15T09:43:05.016Z,34.10
2022-12-15T09:45:21.240Z,34.10
2022-12-15T09:47:40.543Z,32.83
2022-12-15T09:49:55.994Z,32.47
2022-12-15T09:52:17.183Z,32.53
2022-12-15T09:54:21.333Z,31.98
2022-12-15T09:56:34.305Z,32.17
2022-12-15T09:58:52.313Z,31.38
2022-12-15T10:01:04.574Z,31.85
2022-12-15T10:03:15.298Z,25.38
2022-12-15T10:06:06.823Z,29.80
2022-12-15T10:08:02.980Z,32.25
2022-12-15T10:10:15.396Z,32.10
2022-12-15T10:12:30.660Z,32.17
2022-12-15T10:14:57.929Z,30.33
2022-12-15T10:17:24.027Z,30.27
2022-12-15T10:20:04.051Z,30.85
2022-12-15T10:22:06.139Z,30.52
2022-12-15T10:24:37.481Z,31.38
2022-12-15T10:26:43.191Z,29.13
2022-12-15T10:28:59.871Z,30.25
2022-12-15T10:31:35.088Z,30.85
2022-12-15T10:33:39.858Z,30.02
2022-12-15T10:35:44.056Z,30.52
2022-12-15T10:37:46.110Z,30.42
2022-12-15T10:39:50.444Z,30.85
2022-12-15T10:42:29.749Z,29.70
2022-12-15T10:44:37.799Z,30.50
2022-12-15T10:46:39.958Z,31.20
2022-12-15T10:48:58.427Z,31.00
2022-12-15T10:51:32.739Z,30.92
2022-12-15T10:54:06.712Z,30.58
2022-12-15T10:56:09.332Z,29.40
2022-12-15T11:00:30.113Z,27.45
2022-12-15T11:02:34.246Z,28.55
2022-12-15T11:04:36.422Z,30.55
2022-12-15T11:06:42.406Z,30.05
2022-12-15T11:08:45.142Z,29.98
2022-12-15T11:11:14.433Z,30.92
2022-12-15T11:13:21.693Z,29.10
2022-12-15T11:15:23.410Z,29.77
2022-12-15T11:17:25.254Z,30.10
2022-12-15T11:19:39.550Z,31.00
2022-12-15T11:21:51.914Z,30.95
2022-12-15T11:24:04.336Z,29.95
2022-12-15T11:26:24.331Z,29.52
2022-12-15T11:28:43.895Z,29.67
2022-12-15T11:30:55.738Z,29.13
2022-12-15T11:33:00.148Z,28.55
2022-12-15T11:35:02.270Z,30.73
2022-12-15T11:37:04.096Z,29.42
2022-12-15T11:39:16.156Z,31.10
2022-12-15T11:41:35.590Z,30.83
2022-12-15T11:44:01.029Z,29.98
2022-12-15T11:46:08.980Z,31.27
2022-12-15T11:48:22.430Z,30.67
2022-12-15T11:50:33.359Z,30.75
2022-12-15T11:52:54.519Z,30.90
2022-12-15T11:55:12.790Z,31.53
2022-12-15T11:57:32.775Z,29.52
2022-12-15T12:00:03.263Z,28.98
2022-12-15T12:02:32.186Z,30.00
2022-12-15T12:04:59.317Z,28.95
2022-12-15T12:07:41.552Z,28.23
2022-12-15T12:10:21.497Z,27.63
2022-12-15T12:12:30.625Z,27.20
2022-12-15T12:14:51.329Z,28.73
2022-12-15T12:17:01.845Z,27.98
2022-12-15T12:19:18.588Z,27.35
2022-12-15T12:21:26.608Z,30.05
2022-12-15T12:23:40.518Z,29.17
2022-12-15T12:26:04.057Z,28.75
2022-12-15T12:28:29.828Z,29.85
2022-12-15T12:30:42.635Z,28.98
2022-12-15T12:32:50.586Z,29.17
2022-12-15T12:37:49.558Z,27.50
2022-12-15T12:39:54.078Z,27.20
2022-12-15T12:42:10.088Z,28.10
2022-12-15T12:44:32.237Z,26.60
2022-12-15T12:46:40.574Z,26.60
2022-12-15T12:48:52.118Z,27.08
2022-12-15T12:51:11.020Z,27.90
2022-12-15T12:53:35.239Z,25.92
2022-12-15T12:55:42.216Z,26.38
2022-12-15T12:57:45.256Z,25.42
2022-12-15T12:59:58.029Z,27.15
2022-12-15T13:02:24.659Z,27.45
2022-12-15T13:04:29.698Z,26.35
2022-12-15T13:06:34.791Z,26.58
2022-12-15T13:08:52.040Z,26.90
2022-12-15T13:10:55.375Z,28.17
2022-12-15T13:12:59.313Z,28.33
2022-12-15T13:15:10.571Z,29.70
2022-12-15T13:17:28.523Z,29.35
2022-12-15T13:20:01.999Z,29.05
2022-12-15T13:24:05.540Z,28.55
2022-12-15T13:26:07.244Z,29.40
2022-12-15T13:28:22.668Z,30.80
2022-12-15T13:30:25.028Z,33.47
2022-12-15T13:32:40.127Z,37.00
2022-12-15T13:34:44.052Z,36.97
2022-12-15T13:36:55.531Z,37.53
2022-12-15T13:38:57.560Z,38.08
2022-12-15T13:40:59.271Z,38.33
2022-12-15T13:43:04.139Z,38.97
2022-12-15T13:45:18.286Z,37.92
2022-12-15T13:47:29.973Z,37.28
2022-12-15T13:49:43.209Z,40.28
2022-12-15T13:51:51.548Z,38.90
2022-12-15T13:54:09.936Z,37.67
2022-12-15T13:56:11.609Z,39.50
2022-12-15T13:58:16.396Z,39.70
2022-12-15T14:00:21.540Z,42.25
2022-12-15T14:02:29.127Z,43.47
2022-12-15T14:04:30.889Z,43.92
2022-12-15T14:06:38.677Z,40.85
2022-12-15T14:08:41.458Z,39.50
2022-12-15T14:10:57.053Z,40.63
2022-12-15T14:13:15.416Z,38.00
2022-12-15T14:15:20.105Z,38.97
2022-12-15T14:17:22.476Z,39.10
2022-12-15T14:19:24.631Z,37.67
2022-12-15T14:21:26.996Z,38.47
2022-12-15T14:23:40.369Z,37.25
2022-12-15T14:25:53.176Z,38.78
2022-12-15T14:30:35.544Z,35.78
2022-12-15T14:32:37.698Z,37.60
2022-12-15T14:34:41.891Z,38.95
2022-12-15T14:36:44.546Z,38.05
2022-12-15T14:38:53.203Z,38.08
2022-12-15T14:40:58.137Z,38.35
2022-12-15T14:43:00.151Z,37.80
2022-12-15T14:45:01.928Z,36.55
2022-12-15T14:47:07.220Z,27.67
2022-12-15T14:49:23.789Z,35.67
2022-12-15T14:51:28.324Z,36.95
2022-12-15T14:53:39.931Z,34.55
2022-12-15T14:55:41.750Z,36.42
2022-12-15T14:57:47.612Z,36.03
2022-12-15T14:59:51.318Z,37.72
2022-12-15T15:01:59.609Z,35.90
2022-12-15T15:03:12.825Z,29.63
2022-12-15T15:04:06.575Z,35.30
2022-12-15T15:06:11.137Z,35.78
2022-12-15T15:08:24.060Z,36.15
2022-12-15T15:10:30.034Z,34.33
2022-12-15T15:12:45.291Z,33.88
2022-12-15T15:15:03.017Z,33.55
2022-12-15T15:17:21.227Z,34.85
2022-12-15T15:19:23.094Z,34.20
2022-12-15T15:21:28.373Z,35.78
2022-12-15T15:23:30.499Z,32.72
2022-12-15T15:25:40.679Z,36.30
2022-12-15T15:27:42.777Z,34.95
2022-12-15T15:29:44.599Z,34.92
2022-12-15T15:31:46.586Z,34.53
2022-12-15T15:33:48.378Z,34.03
2022-12-15T15:35:58.277Z,34.53
2022-12-15T15:38:05.645Z,34.97
2022-12-15T15:40:12.249Z,34.42
2022-12-15T15:42:14.001Z,34.13
2022-12-15T15:44:15.944Z,33.85
2022-12-15T15:46:21.716Z,35.97
2022-12-15T15:48:32.189Z,34.88
2022-12-15T15:50:34.338Z,32.95
2022-12-15T15:52:36.192Z,34.00
2022-12-15T15:54:38.546Z,33.72
2022-12-15T15:56:41.606Z,33.78
2022-12-15T15:58:43.881Z,32.42
2022-12-15T16:00:45.750Z,33.72
2022-12-15T16:02:47.868Z,25.92
2022-12-15T16:04:49.728Z,34.03
2022-12-15T16:06:52.635Z,34.28
2022-12-15T16:08:54.927Z,34.78
2022-12-15T16:10:56.793Z,35.70
2022-12-15T16:13:01.798Z,37.30
2022-12-15T16:15:16.321Z,34.08
2022-12-15T16:17:18.754Z,36.05
2022-12-15T16:19:20.573Z,33.78
2022-12-15T16:21:25.843Z,32.30
2022-12-15T16:23:29.354Z,34.88
2022-12-15T16:25:50.541Z,35.55
2022-12-15T16:27:52.664Z,34.90
2022-12-15T16:29:54.391Z,26.10
2022-12-15T16:31:56.145Z,35.40
2022-12-15T16:33:58.509Z,37.42
2022-12-15T16:36:00.252Z,37.67
2022-12-15T16:38:05.095Z,38.90
2022-12-15T16:40:21.637Z,37.88
2022-12-15T16:42:23.354Z,38.78
2022-12-15T16:44:27.139Z,38.00
2022-12-15T16:46:28.944Z,39.30
2022-12-15T16:48:31.173Z,38.50
2022-12-15T16:54:38.079Z,36.30
2022-12-15T16:56:39.840Z,38.60
2022-12-15T16:58:41.622Z,40.35
2022-12-15T17:00:44.813Z,42.03
2022-12-15T17:02:47.129Z,39.08
2022-12-15T17:06:51.869Z,37.97
2022-12-15T17:08:56.525Z,39.88
2022-12-15T17:10:58.480Z,41.08
2022-12-15T17:13:05.789Z,37.85
2022-12-15T17:15:26.253Z,39.78
2022-12-15T17:17:30.146Z,38.45
2022-12-15T17:19:31.841Z,40.03
2022-12-15T17:21:37.082Z,39.30
2022-12-15T17:23:41.037Z,39.90
2022-12-15T17:28:40.682Z,41.38
2022-12-15T17:30:42.682Z,38.90
2022-12-15T17:32:45.687Z,38.60
2022-12-15T17:34:47.581Z,41.92
2022-12-15T17:36:49.387Z,41.08
2022-12-15T17:39:01.661Z,41.05
2022-12-15T17:41:03.486Z,42.38
2022-12-15T17:43:14.902Z,42.15
2022-12-15T17:45:18.321Z,40.58
2022-12-15T17:47:20.172Z,40.05
2022-12-15T17:49:22.064Z,39.80
2022-12-15T17:51:23.769Z,39.22
2022-12-15T17:53:26.104Z,41.72
2022-12-15T17:55:34.868Z,40.85
2022-12-15T17:57:37.400Z,38.78
2022-12-15T17:59:39.262Z,38.70
2022-12-15T18:01:43.005Z,38.72
2022-12-15T18:03:45.030Z,37.22
2022-12-15T18:05:48.674Z,38.25
2022-12-15T18:07:53.648Z,39.40
2022-12-15T18:09:55.434Z,37.42
2022-12-15T18:11:57.242Z,38.13
2022-12-15T18:13:59.038Z,37.75
2022-12-15T18:16:04.089Z,39.00
2022-12-15T18:18:06.431Z,39.03
2022-12-15T18:20:08.703Z,41.58
2022-12-15T18:22:18.691Z,40.88
2022-12-15T18:24:21.662Z,39.50
2022-12-15T18:26:23.726Z,40.80
2022-12-15T18:28:31.367Z,42.58
2022-12-15T18:30:33.109Z,39.88
2022-12-15T18:32:40.006Z,42.47
2022-12-15T18:34:41.787Z,41.40
2022-12-15T18:36:44.238Z,40.55
2022-12-15T18:38:46.099Z,39.85
2022-12-15T18:40:52.757Z,38.28
2022-12-15T18:42:54.698Z,38.95
2022-12-15T18:44:58.713Z,38.33
2022-12-15T18:47:00.520Z,38.63
2022-12-15T18:49:02.295Z,39.28
2022-12-15T18:51:15.699Z,39.17
2022-12-15T18:53:24.017Z,38.13
2022-12-15T18:55:28.798Z,38.80
2022-12-15T18:57:38.224Z,38.92
2022-12-15T18:59:40.135Z,39.22
2022-12-15T19:01:43.604Z,27.45
2022-12-15T19:03:45.490Z,39.50
2022-12-15T19:05:48.419Z,45.08
2022-12-15T19:07:50.129Z,42.35
2022-12-15T19:09:52.403Z,44.20
2022-12-15T19:12:13.005Z,46.35
2022-12-15T19:14:34.846Z,44.22
2022-12-15T19:16:55.357Z,39.40
2022-12-15T19:19:17.451Z,40.17
2022-12-15T19:22:03.370Z,29.53
2022-12-15T19:24:07.558Z,37.13
2022-12-15T19:26:11.413Z,38.22
2022-12-15T19:28:20.869Z,37.40
2022-12-15T19:30:22.729Z,38.42
2022-12-15T19:32:24.617Z,39.33
2022-12-15T19:34:26.357Z,38.47
2022-12-15T19:36:32.235Z,37.88
2022-12-15T19:38:36.774Z,38.42
2022-12-15T19:40:38.668Z,39.30
2022-12-15T19:42:40.926Z,40.15
2022-12-15T19:44:42.641Z,37.17
2022-12-15T19:46:44.701Z,39.83
2022-12-15T19:48:47.298Z,37.80
2022-12-15T19:53:02.016Z,35.35
2022-12-15T19:55:03.953Z,39.67
2022-12-15T19:57:13.336Z,41.13
2022-12-15T19:59:23.542Z,38.88
2022-12-15T20:01:25.436Z,39.15
2022-12-15T20:03:28.722Z,39.83
2022-12-15T20:05:30.616Z,39.65
2022-12-15T20:07:32.453Z,40.53
2022-12-15T20:09:34.699Z,40.92
2022-12-15T20:11:36.474Z,40.47
2022-12-15T20:13:38.281Z,41.15
2022-12-15T20:15:40.256Z,37.10
2022-12-15T20:17:42.066Z,38.92
2022-12-15T20:19:44.225Z,37.65
2022-12-15T20:21:46.079Z,37.63
2022-12-15T20:23:56.723Z,36.50
2022-12-15T20:25:58.597Z,36.42
2022-12-15T20:28:01.390Z,37.70
2022-12-15T20:30:04.011Z,34.72
2022-12-15T20:32:17.799Z,35.55
2022-12-15T20:34:19.903Z,33.03
2022-12-15T20:36:28.119Z,34.90
2022-12-15T20:38:32.192Z,36.40
2022-12-15T20:40:34.220Z,36.08
2022-12-15T20:42:35.977Z,32.30
2022-12-15T20:44:37.715Z,31.83
2022-12-15T20:46:40.106Z,33.40
2022-12-15T20:48:43.115Z,32.97
2022-12-15T20:50:49.694Z,31.13
2022-12-15T20:52:52.429Z,31.05
2022-12-15T20:54:56.728Z,32.20
2022-12-15T20:56:58.507Z,31.45
2022-12-15T20:59:00.298Z,28.92
2022-12-15T21:01:02.160Z,27.67
2022-12-15T21:03:19.828Z,26.95
2022-12-15T21:05:24.364Z,26.33
2022-12-15T21:07:26.124Z,25.58
2022-12-15T21:09:27.979Z,27.02
2022-12-15T21:11:32.849Z,25.80
2022-12-15T21:13:35.539Z,26.90
2022-12-15T21:15:37.916Z,25.05
2022-12-15T21:17:41.972Z,26.23
2022-12-15T21:19:44.787Z,24.92
2022-12-15T21:23:50.185Z,22.83
2022-12-15T21:25:52.619Z,24.83
2022-12-15T21:27:55.259Z,23.88
2022-12-15T21:29:57.004Z,24.92
2022-12-15T21:31:58.750Z,23.98
2022-12-15T21:34:00.510Z,23.98
2022-12-15T21:36:02.602Z,24.77
2022-12-15T21:38:05.072Z,22.48
2022-12-15T21:40:07.696Z,23.27
2022-12-15T21:42:16.100Z,23.42
2022-12-15T21:44:18.437Z,21.95
2022-12-15T21:46:27.948Z,22.67
2022-12-15T21:48:48.352Z,22.02
2022-12-15T21:50:50.299Z,22.30
2022-12-15T21:52:53.495Z,22.52
2022-12-15T21:54:56.476Z,20.92
2022-12-15T21:57:02.781Z,23.05
2022-12-15T21:59:12.363Z,20.58
2022-12-15T22:01:19.633Z,21.23
2022-12-15T22:03:21.551Z,20.85
2022-12-15T22:05:30.805Z,20.15
2022-12-15T22:07:32.526Z,22.10
2022-12-15T22:09:34.241Z,20.23
2022-12-15T22:11:36.220Z,19.47
2022-12-15T22:13:39.288Z,19.17
2022-12-15T22:15:41.200Z,20.50
2022-12-15T22:17:44.041Z,19.45
2022-12-15T22:19:45.830Z,18.67
2022-12-15T22:21:47.771Z,18.40
2022-12-15T22:23:50.780Z,18.77
2022-12-15T22:25:55.485Z,17.95
2022-12-15T22:27:57.250Z,17.90
2022-12-15T22:29:58.975Z,18.42
2022-12-15T22:32:01.184Z,18.45
2022-12-15T22:34:11.816Z,18.33
2022-12-15T22:36:13.665Z,16.70
2022-12-15T22:38:16.127Z,17.45
2022-12-15T22:40:17.848Z,17.77
2022-12-15T22:42:19.605Z,18.58
2022-12-15T22:44:37.286Z,16.73
2022-12-15T22:46:39.044Z,17.83
2022-12-15T22:48:43.533Z,18.10
2022-12-15T22:50:45.294Z,17.92
2022-12-15T22:52:47.913Z,18.27
2022-12-15T22:54:49.727Z,18.13
2022-12-15T22:56:58.379Z,19.25
2022-12-15T22:59:05.695Z,18.58
2022-12-15T23:01:08.009Z,17.60
2022-12-15T23:03:11.875Z,18.00
2022-12-15T23:05:17.028Z,16.50
2022-12-15T23:07:19.868Z,17.67
2022-12-15T23:09:21.642Z,16.98
2022-12-15T23:11:39.333Z,17.15
2022-12-15T23:13:41.161Z,16.17
2022-12-15T23:16:01.822Z,16.70
2022-12-15T23:18:03.699Z,17.85
2022-12-15T23:20:05.978Z,17.40
2022-12-15T23:22:07.818Z,17.92
2022-12-15T23:24:09.573Z,16.75
2022-12-15T23:26:12.329Z,16.73
2022-12-15T23:28:14.114Z,16.83
2022-12-15T23:30:15.986Z,16.88
2022-12-15T23:32:17.739Z,16.02
2022-12-15T23:34:19.493Z,16.33
2022-12-15T23:36:21.336Z,16.73
2022-12-15T23:38:23.977Z,16.65
2022-12-15T23:40:25.697Z,18.10
2022-12-15T23:42:27.440Z,17.90
2022-12-15T23:44:30.149Z,16.63
2022-12-15T23:46:32.175Z,17.77
2022-12-15T23:48:39.088Z,17.80
2022-12-15T23:50:40.883Z,18.05
2022-12-15T23:52:42.618Z,16.63
2022-12-15T23:54:44.842Z,17.70
2022-12-15T23:56:46.624Z,17.50
2022-12-15T23:58:55.144Z,17.67
